Time;durP1;ratioP1;P1;durP2;ratioP2;P2;SDS_P1;SDS_P2;PMS_P1;PMS_P2;Temp;Humidity;BMP_temperature;BMP_pressure;BME280_temperature;BME280_humidity;BME280_pressure;Samples;Min_cycle;Max_cycle;Signal;HPM_P1;HPM_P2
2021/12/08 00:00:14;0.00;0.00;0.62;0.00;0.00;0.62;1.37;0.80;;;21.30;28.00;;;;;;2265372;61;20377;-63
2021/12/08 00:03:01;0.00;0.00;0.62;0.00;0.00;0.62;1.40;0.90;;;21.30;27.50;;;;;;2265993;61;20670;-61
2021/12/08 00:05:47;0.00;0.00;0.62;0.00;0.00;0.62;1.63;1.10;;;21.40;27.60;;;;;;2265657;61;20357;-61
2021/12/08 00:08:33;0.00;0.00;0.62;0.00;0.00;0.62;1.40;0.90;;;21.40;27.60;;;;;;2265416;61;20705;-61
2021/12/08 00:14:21;0.00;0.00;0.62;0.00;0.00;0.62;1.73;1.03;;;21.40;27.60;;;;;;2265450;61;20360;-61
2021/12/08 00:17:06;0.00;0.00;0.62;0.00;0.00;0.62;2.00;1.00;;;21.30;27.50;;;;;;2265777;61;20447;-61
2021/12/08 00:19:51;0.00;0.00;0.62;0.00;0.00;0.62;2.47;1.40;;;21.40;27.60;;;;;;2265334;61;20377;-61
2021/12/08 00:22:37;0.00;0.00;0.62;0.00;0.00;0.62;2.50;1.20;;;21.40;27.60;;;;;;2265704;61;20380;-61
2021/12/08 00:25:22;0.00;0.00;0.62;0.00;0.00;0.62;1.80;1.10;;;21.40;27.60;;;;;;2265524;61;20437;-61
2021/12/08 00:28:08;0.00;0.00;0.62;0.00;0.00;0.62;1.30;0.73;;;21.40;27.60;;;;;;2265469;61;20364;-61
2021/12/08 00:31:00;0.00;0.00;0.62;0.00;0.00;0.62;1.83;0.90;;;21.40;27.60;;;;;;2265652;61;20400;-61
2021/12/08 00:33:44;0.00;0.00;0.62;0.00;0.00;0.62;1.90;1.10;;;21.40;27.60;;;;;;2265341;61;20366;-62
2021/12/08 00:36:40;0.00;0.00;0.62;0.00;0.00;0.62;1.83;1.10;;;21.40;27.60;;;;;;2267910;61;20380;-62
2021/12/08 00:39:26;0.00;0.00;0.62;0.00;0.00;0.62;1.70;1.00;;;21.40;27.40;;;;;;2265572;61;20418;-61
2021/12/08 00:42:10;0.00;0.00;0.62;0.00;0.00;0.62;2.40;1.20;;;21.40;27.30;;;;;;2265572;61;20385;-61
2021/12/08 00:44:55;0.00;0.00;0.62;0.00;0.00;0.62;1.83;1.23;;;21.40;27.10;;;;;;2265676;61;20605;-61
2021/12/08 00:47:40;0.00;0.00;0.62;0.00;0.00;0.62;1.87;1.20;;;21.40;26.90;;;;;;2265301;61;20613;-61
2021/12/08 00:50:29;0.00;0.00;0.62;0.00;0.00;0.62;1.90;1.20;;;21.30;26.70;;;;;;2265328;61;20373;-61
2021/12/08 00:53:15;0.00;0.00;0.62;0.00;0.00;0.62;1.90;1.37;;;21.30;26.70;;;;;;2265503;61;20392;-61
2021/12/08 00:56:02;0.00;0.00;0.62;0.00;0.00;0.62;2.30;1.60;;;21.30;26.50;;;;;;2265407;61;20572;-60
2021/12/08 00:58:47;0.00;0.00;0.62;0.00;0.00;0.62;3.10;1.47;;;21.20;26.20;;;;;;2265242;61;20570;-60
2021/12/08 01:01:32;0.00;0.00;0.62;0.00;0.00;0.62;2.20;1.70;;;21.20;26.30;;;;;;2265612;61;20396;-60
2021/12/08 01:04:16;0.00;0.00;0.62;0.00;0.00;0.62;3.63;1.60;;;21.20;26.10;;;;;;2265758;61;20364;-61
2021/12/08 01:07:02;0.00;0.00;0.62;0.00;0.00;0.62;2.13;1.40;;;21.10;26.10;;;;;;2265128;61;20360;-61
2021/12/08 01:09:47;0.00;0.00;0.62;0.00;0.00;0.62;2.20;1.33;;;21.10;26.00;;;;;;2265170;61;20423;-61
2021/12/08 01:12:33;0.00;0.00;0.62;0.00;0.00;0.62;2.37;1.53;;;21.10;26.00;;;;;;2265563;61;20391;-61
2021/12/08 01:15:18;0.00;0.00;0.62;0.00;0.00;0.62;2.40;1.60;;;21.00;25.90;;;;;;2265308;61;20487;-61
2021/12/08 01:18:04;0.00;0.00;0.62;0.00;0.00;0.62;2.17;1.40;;;21.00;25.90;;;;;;2265185;61;20411;-61
2021/12/08 01:20:50;0.00;0.00;0.62;0.00;0.00;0.62;2.70;1.83;;;21.00;25.80;;;;;;2265156;61;20759;-60
2021/12/08 01:23:36;0.00;0.00;0.62;0.00;0.00;0.62;1.73;1.37;;;20.90;25.50;;;;;;2265621;61;20437;-60
2021/12/08 01:26:20;0.00;0.00;0.62;0.00;0.00;0.62;2.80;2.10;;;20.90;25.60;;;;;;2265363;61;20357;-61
2021/12/08 01:29:07;0.00;0.00;0.62;0.00;0.00;0.62;2.50;1.87;;;20.90;25.40;;;;;;2264949;61;20388;-61
2021/12/08 01:31:52;0.00;0.00;0.62;0.00;0.00;0.62;3.70;2.60;;;20.80;25.20;;;;;;2265795;61;20357;-60
2021/12/08 01:34:37;0.00;0.00;0.62;0.00;0.00;0.62;2.97;1.90;;;20.80;25.10;;;;;;2267766;61;20434;-61
2021/12/08 01:37:21;0.00;0.00;0.62;0.00;0.00;0.62;2.43;2.23;;;20.70;25.00;;;;;;2265309;61;20361;-61
2021/12/08 01:40:11;0.00;0.00;0.62;0.00;0.00;0.62;4.07;2.30;;;20.70;24.80;;;;;;2265070;61;20453;-61
2021/12/08 01:42:58;0.00;0.00;0.62;0.00;0.00;0.62;2.60;2.10;;;20.60;24.60;;;;;;2264948;61;20393;-60
2021/12/08 01:45:57;0.00;0.00;0.62;0.00;0.00;0.62;3.10;2.40;;;20.50;24.40;;;;;;2265825;61;20361;-61
2021/12/08 01:48:43;0.00;0.00;0.62;0.00;0.00;0.62;4.20;2.30;;;20.40;24.30;;;;;;2264930;61;20361;-61
2021/12/08 01:51:28;0.00;0.00;0.62;0.00;0.00;0.62;2.60;1.90;;;20.40;24.20;;;;;;2265116;61;20408;-61
2021/12/08 01:54:14;0.00;0.00;0.62;0.00;0.00;0.62;3.77;1.97;;;20.30;24.20;;;;;;2265339;61;20365;-61
2021/12/08 01:57:00;0.00;0.00;0.62;0.00;0.00;0.62;2.83;1.70;;;20.20;24.10;;;;;;2264987;61;20357;-61
2021/12/08 01:59:44;0.00;0.00;0.62;0.00;0.00;0.62;2.20;1.80;;;20.20;24.00;;;;;;2265407;61;20353;-61
2021/12/08 02:02:30;0.00;0.00;0.62;0.00;0.00;0.62;2.40;1.83;;;20.10;24.00;;;;;;2265130;61;20372;-61
2021/12/08 02:05:16;0.00;0.00;0.62;0.00;0.00;0.62;4.00;2.10;;;20.10;24.10;;;;;;2264936;61;20361;-61
2021/12/08 02:08:03;0.00;0.00;0.62;0.00;0.00;0.62;5.30;2.30;;;20.00;23.90;;;;;;2265546;61;20361;-61
2021/12/08 02:10:48;0.00;0.00;0.62;0.00;0.00;0.62;3.03;2.10;;;20.00;24.10;;;;;;2264890;61;20672;-61
2021/12/08 02:13:38;0.00;0.00;0.62;0.00;0.00;0.62;3.63;2.27;;;19.90;24.00;;;;;;2265077;61;20361;-61
2021/12/08 02:16:22;0.00;0.00;0.62;0.00;0.00;0.62;2.67;2.03;;;19.80;23.80;;;;;;2267556;61;20411;-61
2021/12/08 02:19:08;0.00;0.00;0.62;0.00;0.00;0.62;3.50;2.43;;;19.70;23.70;;;;;;2264842;61;20362;-61
2021/12/08 02:21:55;0.00;0.00;0.62;0.00;0.00;0.62;3.93;2.40;;;19.70;23.60;;;;;;2265297;61;20377;-61
2021/12/08 02:24:40;0.00;0.00;0.62;0.00;0.00;0.62;2.47;2.00;;;19.70;23.70;;;;;;2265074;61;20357;-61
2021/12/08 02:27:24;0.00;0.00;0.62;0.00;0.00;0.62;3.70;2.60;;;19.60;23.70;;;;;;2264928;61;20361;-61
2021/12/08 02:48:25;0.00;0.00;0.62;0.00;0.00;0.62;3.17;2.20;;;19.30;24.00;;;;;;2265650;61;20747;-59
2021/12/08 02:51:10;0.00;0.00;0.62;0.00;0.00;0.62;3.80;1.80;;;19.20;23.90;;;;;;2265838;61;20400;-60
2021/12/08 02:53:54;0.00;0.00;0.62;0.00;0.00;0.62;2.57;2.00;;;19.20;23.90;;;;;;2265654;61;20515;-60
2021/12/08 02:56:40;0.00;0.00;0.62;0.00;0.00;0.62;3.10;1.87;;;19.20;24.00;;;;;;2265915;61;20383;-60
2021/12/08 02:59:25;0.00;0.00;0.62;0.00;0.00;0.62;3.27;1.80;;;19.20;24.20;;;;;;2265991;61;20481;-60
2021/12/08 03:02:10;0.00;0.00;0.62;0.00;0.00;0.62;3.40;1.83;;;19.10;24.20;;;;;;2265567;61;20389;-60
2021/12/08 03:04:55;0.00;0.00;0.62;0.00;0.00;0.62;2.40;1.70;;;19.10;24.30;;;;;;2265721;61;20360;-60
2021/12/08 03:07:40;0.00;0.00;0.62;0.00;0.00;0.62;2.67;1.50;;;19.10;24.20;;;;;;2265757;61;20427;-60
2021/12/08 03:10:31;0.00;0.00;0.62;0.00;0.00;0.62;2.00;1.57;;;19.10;24.30;;;;;;2265568;61;20456;-59
2021/12/08 03:13:17;0.00;0.00;0.62;0.00;0.00;0.62;2.27;1.47;;;19.10;24.10;;;;;;2266103;61;20357;-60
2021/12/08 03:16:01;0.00;0.00;0.62;0.00;0.00;0.62;3.47;1.47;;;19.00;23.90;;;;;;2265541;61;20753;-60
2021/12/08 03:18:46;0.00;0.00;0.62;0.00;0.00;0.62;3.50;1.90;;;19.10;24.00;;;;;;2267887;61;20403;-59
2021/12/08 03:21:32;0.00;0.00;0.62;0.00;0.00;0.62;2.13;1.80;;;19.00;23.90;;;;;;2266113;61;20412;-60
2021/12/08 03:27:12;0.00;0.00;0.62;0.00;0.00;0.62;2.60;1.63;;;19.00;24.00;;;;;;2265612;61;20361;-60
2021/12/08 03:30:11;0.00;0.00;0.62;0.00;0.00;0.62;4.23;1.67;;;18.90;23.90;;;;;;2265538;61;20829;-59
2021/12/08 03:32:58;0.00;0.00;0.62;0.00;0.00;0.62;2.50;1.80;;;18.90;24.00;;;;;;2265692;61;20370;-60
2021/12/08 03:35:42;0.00;0.00;0.62;0.00;0.00;0.62;4.00;1.80;;;18.90;24.10;;;;;;2265853;61;20357;-57
2021/12/08 03:38:28;0.00;0.00;0.62;0.00;0.00;0.62;2.30;1.43;;;18.80;24.20;;;;;;2265336;61;20724;-58
2021/12/08 03:41:13;0.00;0.00;0.62;0.00;0.00;0.62;2.50;1.53;;;18.80;24.10;;;;;;2262246;61;20608;-60
2021/12/08 03:43:58;0.00;0.00;0.62;0.00;0.00;0.62;4.70;2.07;;;18.80;24.20;;;;;;2265725;61;20674;-59
2021/12/08 03:46:44;0.00;0.00;0.62;0.00;0.00;0.62;3.80;1.70;;;18.80;24.20;;;;;;2262449;61;20361;-59
2021/12/08 03:49:32;0.00;0.00;0.62;0.00;0.00;0.62;3.00;2.10;;;18.70;24.00;;;;;;2265201;61;20497;-61
2021/12/08 03:52:16;0.00;0.00;0.62;0.00;0.00;0.62;3.20;1.37;;;18.70;24.00;;;;;;2265789;61;20400;-60
2021/12/08 03:55:01;0.00;0.00;0.62;0.00;0.00;0.62;3.70;1.90;;;18.80;24.10;;;;;;2265595;61;20357;-60
2021/12/08 03:57:45;0.00;0.00;0.62;0.00;0.00;0.62;4.40;1.77;;;18.70;24.00;;;;;;2265417;61;20361;-60
2021/12/08 04:00:30;0.00;0.00;0.62;0.00;0.00;0.62;2.40;1.57;;;18.70;23.80;;;;;;2265513;61;20392;-59
2021/12/08 04:03:18;0.00;0.00;0.62;0.00;0.00;0.62;2.53;1.60;;;18.60;23.80;;;;;;2265531;61;20385;-61
2021/12/08 04:06:14;0.00;0.00;0.62;0.00;0.00;0.62;2.60;1.80;;;18.60;23.80;;;;;;2268200;61;20465;-60
2021/12/08 04:09:02;0.00;0.00;0.62;0.00;0.00;0.62;3.80;1.73;;;18.60;23.90;;;;;;2265455;61;20392;-59
2021/12/08 04:11:47;0.00;0.00;0.62;0.00;0.00;0.62;2.10;1.90;;;18.50;23.90;;;;;;2265344;61;20761;-60
2021/12/08 04:14:36;0.00;0.00;0.62;0.00;0.00;0.62;3.27;1.60;;;18.50;23.90;;;;;;2265763;61;20365;-60
2021/12/08 04:17:27;0.00;0.00;0.62;0.00;0.00;0.62;3.30;1.70;;;18.50;23.80;;;;;;2267745;61;20397;-60
2021/12/08 04:20:20;0.00;0.00;0.62;0.00;0.00;0.62;3.63;1.90;;;18.40;23.70;;;;;;2265565;61;20416;-60
2021/12/08 04:23:08;0.00;0.00;0.62;0.00;0.00;0.62;3.30;1.97;;;18.40;23.70;;;;;;2265576;61;20388;-60
2021/12/08 04:25:57;0.00;0.00;0.62;0.00;0.00;0.62;3.90;1.87;;;18.40;23.60;;;;;;2265344;61;20523;-60
2021/12/08 04:28:42;0.00;0.00;0.62;0.00;0.00;0.62;2.67;2.10;;;18.30;23.50;;;;;;2265849;61;20353;-60
2021/12/08 04:31:33;0.00;0.00;0.62;0.00;0.00;0.62;3.23;1.80;;;18.30;23.60;;;;;;2265386;61;20441;-59
2021/12/08 04:34:25;0.00;0.00;0.62;0.00;0.00;0.62;2.43;1.90;;;18.20;23.60;;;;;;2265413;61;20365;-60
2021/12/08 04:37:23;0.00;0.00;0.62;0.00;0.00;0.62;2.20;1.43;;;18.20;23.60;;;;;;2265305;61;20426;-60
2021/12/08 04:40:27;0.00;0.00;0.62;0.00;0.00;0.62;4.63;1.97;;;18.10;23.50;;;;;;2265280;61;20602;-59
2021/12/08 04:46:15;0.00;0.00;0.62;0.00;0.00;0.62;2.10;1.57;;;18.10;23.70;;;;;;2265412;61;20361;-59
2021/12/08 04:51:54;0.00;0.00;0.62;0.00;0.00;0.62;1.87;1.60;;;18.00;23.70;;;;;;2265225;61;20400;-59
2021/12/08 05:01:14;0.00;0.00;0.62;0.00;0.00;0.62;2.17;1.70;;;17.90;23.70;;;;;;2265156;61;20658;-61
2021/12/08 05:10:16;0.00;0.00;0.62;0.00;0.00;0.62;3.07;1.83;;;17.80;23.70;;;;;;2264905;61;20396;-61
2021/12/08 05:13:04;0.00;0.00;0.62;0.00;0.00;0.62;5.00;2.63;;;17.70;23.80;;;;;;2265601;61;20353;-61
2021/12/08 05:15:54;0.00;0.00;0.62;0.00;0.00;0.62;2.57;1.73;;;17.70;23.80;;;;;;2265429;61;20717;-61
2021/12/08 05:18:44;0.00;0.00;0.62;0.00;0.00;0.62;2.50;1.90;;;17.60;23.70;;;;;;2267443;61;20380;-61
2021/12/08 05:21:38;0.00;0.00;0.62;0.00;0.00;0.62;3.03;2.50;;;17.60;23.80;;;;;;2265136;61;20428;-61
2021/12/08 05:24:28;0.00;0.00;0.62;0.00;0.00;0.62;2.80;2.10;;;17.50;23.80;;;;;;2265318;61;20625;-61
2021/12/08 05:27:20;0.00;0.00;0.62;0.00;0.00;0.62;2.90;2.00;;;17.50;23.80;;;;;;2265444;61;20357;-61
2021/12/08 05:30:11;0.00;0.00;0.62;0.00;0.00;0.62;4.57;1.97;;;17.50;23.80;;;;;;2264890;61;20705;-61
2021/12/08 05:32:56;0.00;0.00;0.62;0.00;0.00;0.62;6.47;2.60;;;17.50;23.90;;;;;;2265158;61;20400;-61
2021/12/08 05:35:44;0.00;0.00;0.62;0.00;0.00;0.62;3.00;2.03;;;17.40;23.80;;;;;;2265370;61;20362;-61
2021/12/08 05:38:28;0.00;0.00;0.62;0.00;0.00;0.62;2.03;1.53;;;17.40;23.70;;;;;;2264931;61;20381;-61
2021/12/08 05:41:17;0.00;0.00;0.62;0.00;0.00;0.62;3.30;2.00;;;17.40;23.80;;;;;;2265328;61;20385;-61
2021/12/08 05:44:04;0.00;0.00;0.62;0.00;0.00;0.62;3.40;2.00;;;17.40;23.80;;;;;;2262107;61;20684;-61
2021/12/08 05:46:54;0.00;0.00;0.62;0.00;0.00;0.62;2.43;2.10;;;17.30;23.70;;;;;;2265242;61;20745;-61
2021/12/08 05:49:39;0.00;0.00;0.62;0.00;0.00;0.62;3.53;2.60;;;17.30;23.80;;;;;;2265316;61;20612;-61
2021/12/08 05:52:25;0.00;0.00;0.62;0.00;0.00;0.62;4.27;1.80;;;17.30;23.80;;;;;;2264994;61;20625;-61
2021/12/08 05:55:11;0.00;0.00;0.62;0.00;0.00;0.62;3.30;2.17;;;17.20;23.70;;;;;;2265150;61;20713;-61
2021/12/08 05:57:57;0.00;0.00;0.62;0.00;0.00;0.62;4.13;2.30;;;17.20;23.80;;;;;;2265436;61;20372;-61
2021/12/08 06:00:50;0.00;0.00;0.62;0.00;0.00;0.62;3.13;2.13;;;17.20;23.80;;;;;;2264889;61;20396;-61
2021/12/08 06:03:35;0.00;0.00;0.62;0.00;0.00;0.62;3.30;2.00;;;17.10;23.60;;;;;;2265417;61;20349;-61
2021/12/08 06:06:22;0.00;0.00;0.62;0.00;0.00;0.62;5.17;1.87;;;17.10;23.70;;;;;;2265178;61;20369;-61
2021/12/08 06:09:11;0.00;0.00;0.62;0.00;0.00;0.62;2.63;1.90;;;17.00;23.80;;;;;;2265619;61;20365;-61
2021/12/08 06:11:57;0.00;0.00;0.62;0.00;0.00;0.62;5.53;2.60;;;17.00;23.90;;;;;;2266411;61;20361;-61
2021/12/08 06:14:41;0.00;0.00;0.62;0.00;0.00;0.62;3.10;2.07;;;17.00;24.10;;;;;;2265738;61;20760;-61
2021/12/08 06:17:30;0.00;0.00;0.62;0.00;0.00;0.62;4.80;2.17;;;16.90;24.20;;;;;;2265313;61;20637;-61
2021/12/08 06:20:16;0.00;0.00;0.62;0.00;0.00;0.62;5.47;2.10;;;16.90;24.30;;;;;;2266013;61;20520;-61
2021/12/08 06:23:03;0.00;0.00;0.62;0.00;0.00;0.62;6.20;2.47;;;16.90;24.30;;;;;;2265820;61;20415;-61
2021/12/08 06:25:48;0.00;0.00;0.62;0.00;0.00;0.62;2.97;1.73;;;16.90;24.30;;;;;;2265935;61;20417;-61
2021/12/08 06:28:33;0.00;0.00;0.62;0.00;0.00;0.62;4.00;1.60;;;16.90;24.20;;;;;;2265620;61;20353;-61
2021/12/08 06:31:21;0.00;0.00;0.62;0.00;0.00;0.62;2.83;2.00;;;16.90;24.30;;;;;;2265615;61;20384;-61
2021/12/08 06:34:09;0.00;0.00;0.62;0.00;0.00;0.62;2.50;1.57;;;16.90;24.30;;;;;;2266284;61;20396;-61
2021/12/08 06:36:59;0.00;0.00;0.62;0.00;0.00;0.62;4.53;2.20;;;16.90;24.40;;;;;;2265752;61;20357;-61
2021/12/08 06:39:50;0.00;0.00;0.62;0.00;0.00;0.62;2.43;1.60;;;16.90;24.40;;;;;;2265528;61;20664;-61
2021/12/08 06:42:38;0.00;0.00;0.62;0.00;0.00;0.62;4.23;2.10;;;16.90;24.40;;;;;;2266151;61;20404;-61
2021/12/08 06:45:28;0.00;0.00;0.62;0.00;0.00;0.62;2.30;1.70;;;16.90;24.40;;;;;;2265745;61;20365;-61
2021/12/08 06:48:22;0.00;0.00;0.62;0.00;0.00;0.62;4.50;2.87;;;16.90;24.40;;;;;;2266054;61;20345;-61
2021/12/08 06:51:13;0.00;0.00;0.62;0.00;0.00;0.62;4.03;2.10;;;16.90;24.40;;;;;;2265588;61;20384;-61
2021/12/08 06:54:03;0.00;0.00;0.62;0.00;0.00;0.62;2.23;1.90;;;16.90;24.40;;;;;;2265706;61;20356;-61
2021/12/08 06:56:55;0.00;0.00;0.62;0.00;0.00;0.62;4.97;2.00;;;16.90;24.40;;;;;;2265960;61;20701;-61
2021/12/08 06:59:54;0.00;0.00;0.62;0.00;0.00;0.62;4.30;2.10;;;16.90;24.50;;;;;;2265512;61;20755;-61
2021/12/08 07:08:45;0.00;0.00;0.62;0.00;0.00;0.62;2.30;1.67;;;17.00;24.50;;;;;;2265419;61;20400;-61
2021/12/08 07:11:32;0.00;0.00;0.62;0.00;0.00;0.62;5.00;2.13;;;17.00;24.50;;;;;;2265778;61;20400;-61
2021/12/08 07:14:18;0.00;0.00;0.62;0.00;0.00;0.62;3.00;1.80;;;17.00;24.50;;;;;;2265674;61;20396;-61
2021/12/08 07:17:12;0.00;0.00;0.62;0.00;0.00;0.62;2.70;1.80;;;17.00;24.50;;;;;;2265577;61;20388;-61
2021/12/08 07:20:14;0.00;0.00;0.62;0.00;0.00;0.62;2.73;1.90;;;17.00;24.50;;;;;;2265389;61;20400;-61
2021/12/08 07:22:59;0.00;0.00;0.62;0.00;0.00;0.62;3.00;2.20;;;17.00;24.50;;;;;;2265619;61;20679;-61
2021/12/08 07:25:48;0.00;0.00;0.62;0.00;0.00;0.62;3.13;2.30;;;17.00;24.50;;;;;;2266119;61;20361;-61
2021/12/08 07:28:33;0.00;0.00;0.62;0.00;0.00;0.62;4.20;2.27;;;17.00;24.50;;;;;;2265239;61;20369;-61
2021/12/08 07:31:23;0.00;0.00;0.62;0.00;0.00;0.62;2.40;1.93;;;17.00;24.50;;;;;;2265451;61;20385;-61
2021/12/08 07:34:14;0.00;0.00;0.62;0.00;0.00;0.62;2.90;2.10;;;17.00;24.50;;;;;;2265901;61;20416;-61
2021/12/08 07:37:03;0.00;0.00;0.62;0.00;0.00;0.62;2.67;1.90;;;17.00;24.50;;;;;;2265616;61;20365;-61
2021/12/08 07:39:55;0.00;0.00;0.62;0.00;0.00;0.62;3.80;1.97;;;17.00;24.50;;;;;;2265681;61;20428;-61
2021/12/08 07:42:47;0.00;0.00;0.62;0.00;0.00;0.62;2.60;2.10;;;17.00;24.50;;;;;;2265241;61;20385;-61
2021/12/08 07:45:36;0.00;0.00;0.62;0.00;0.00;0.62;2.90;2.03;;;17.00;24.50;;;;;;2265505;61;20361;-61
2021/12/08 07:48:29;0.00;0.00;0.62;0.00;0.00;0.62;2.80;2.33;;;17.00;24.50;;;;;;2265905;61;20369;-61
2021/12/08 07:51:19;0.00;0.00;0.62;0.00;0.00;0.62;5.13;2.30;;;16.90;24.40;;;;;;2265381;61;20380;-61
2021/12/08 07:54:06;0.00;0.00;0.62;0.00;0.00;0.62;5.70;2.50;;;16.90;24.40;;;;;;2265482;61;20721;-61
2021/12/08 07:56:55;0.00;0.00;0.62;0.00;0.00;0.62;3.80;2.37;;;16.90;24.40;;;;;;2265428;61;20468;-61
2021/12/08 07:59:46;0.00;0.00;0.62;0.00;0.00;0.62;4.10;2.27;;;16.90;24.40;;;;;;2265425;61;20392;-61
2021/12/08 08:02:31;0.00;0.00;0.62;0.00;0.00;0.62;3.20;2.07;;;16.90;24.40;;;;;;2265569;61;20784;-61
2021/12/08 08:05:17;0.00;0.00;0.62;0.00;0.00;0.62;3.20;2.50;;;16.90;24.40;;;;;;2267790;61;20361;-61
2021/12/08 08:08:07;0.00;0.00;0.62;0.00;0.00;0.62;2.50;2.00;;;16.90;24.40;;;;;;2262204;61;20408;-61
2021/12/08 08:10:57;0.00;0.00;0.62;0.00;0.00;0.62;2.93;2.63;;;16.90;25.00;;;;;;2265644;61;20373;-61
2021/12/08 08:13:42;0.00;0.00;0.62;0.00;0.00;0.62;4.47;2.10;;;16.90;24.40;;;;;;2265702;61;20341;-61
2021/12/08 08:16:33;0.00;0.00;0.62;0.00;0.00;0.62;2.20;2.00;;;16.90;24.40;;;;;;2265545;61;20698;-60
2021/12/08 08:19:19;0.00;0.00;0.62;0.00;0.00;0.62;3.23;2.53;;;16.90;24.40;;;;;;2265167;61;20399;-61
2021/12/08 08:22:09;0.00;0.00;0.62;0.00;0.00;0.62;2.60;2.10;;;16.90;24.40;;;;;;2265378;61;20420;-61
2021/12/08 08:24:57;0.00;0.00;0.62;0.00;0.00;0.62;2.60;2.20;;;16.90;24.50;;;;;;2265925;61;20361;-61
2021/12/08 08:27:42;0.00;0.00;0.62;0.00;0.00;0.62;3.30;2.23;;;16.90;24.50;;;;;;2265325;61;20615;-60
2021/12/08 08:30:32;0.00;0.00;0.62;0.00;0.00;0.62;3.37;2.27;;;16.90;24.50;;;;;;2264797;61;20385;-60
2021/12/08 08:33:20;0.00;0.00;0.62;0.00;0.00;0.62;3.63;2.60;;;16.90;24.50;;;;;;2265706;61;20361;-61
2021/12/08 08:36:10;0.00;0.00;0.62;0.00;0.00;0.62;2.40;1.90;;;16.90;24.40;;;;;;2267922;61;20365;-61
2021/12/08 08:38:58;0.00;0.00;0.62;0.00;0.00;0.62;2.93;2.17;;;17.00;24.50;;;;;;2265151;61;20572;-59
2021/12/08 08:41:47;0.00;0.00;0.62;0.00;0.00;0.62;3.30;2.43;;;16.90;24.60;;;;;;2265337;61;20394;-60
2021/12/08 08:44:37;0.00;0.00;0.62;0.00;0.00;0.62;2.50;1.83;;;17.00;24.80;;;;;;2265209;61;20349;-60
2021/12/08 08:47:27;0.00;0.00;0.62;0.00;0.00;0.62;2.37;1.70;;;17.00;24.90;;;;;;2265705;61;20445;-63
2021/12/08 08:50:19;0.00;0.00;0.62;0.00;0.00;0.62;2.63;2.13;;;17.00;25.00;;;;;;2265003;61;20416;-62
2021/12/08 08:53:04;0.00;0.00;0.62;0.00;0.00;0.62;2.67;1.63;;;17.10;25.20;;;;;;2265052;61;20365;-61
2021/12/08 08:55:53;0.00;0.00;0.62;0.00;0.00;0.62;2.57;1.30;;;17.10;25.20;;;;;;2265632;61;20356;-57
2021/12/08 08:58:42;0.00;0.00;0.62;0.00;0.00;0.62;2.20;1.60;;;17.20;25.30;;;;;;2264945;61;20364;-57
2021/12/08 09:01:31;0.00;0.00;0.62;0.00;0.00;0.62;1.87;1.27;;;17.20;25.20;;;;;;2265455;61;20388;-59
2021/12/08 09:04:30;0.00;0.00;0.62;0.00;0.00;0.62;4.03;1.30;;;17.30;25.80;;;;;;2265441;61;20349;-57
2021/12/08 09:07:22;0.00;0.00;0.62;0.00;0.00;0.62;1.60;1.10;;;17.40;25.40;;;;;;2265012;61;20396;-60
2021/12/08 09:10:16;0.00;0.00;0.62;0.00;0.00;0.62;1.77;1.40;;;17.40;25.90;;;;;;2265414;61;20496;-58
2021/12/08 09:13:06;0.00;0.00;0.62;0.00;0.00;0.62;4.83;1.30;;;17.50;25.40;;;;;;2265419;61;20364;-57
2021/12/08 09:15:56;0.00;0.00;0.62;0.00;0.00;0.62;3.57;1.53;;;17.50;25.40;;;;;;2265524;61;20404;-57
2021/12/08 09:18:52;0.00;0.00;0.62;0.00;0.00;0.62;2.00;1.10;;;17.60;25.40;;;;;;2264876;61;20364;-58
2021/12/08 09:21:49;0.00;0.00;0.62;0.00;0.00;0.62;5.20;1.60;;;17.60;25.40;;;;;;2264882;61;20408;-58
2021/12/08 09:24:45;0.00;0.00;0.62;0.00;0.00;0.62;2.23;1.70;;;17.70;25.40;;;;;;2265856;61;20705;-60
2021/12/08 09:27:34;0.00;0.00;0.62;0.00;0.00;0.62;2.90;1.33;;;17.80;25.40;;;;;;2265066;61;20436;-59
2021/12/08 09:30:31;0.00;0.00;0.62;0.00;0.00;0.62;3.03;1.50;;;17.80;25.30;;;;;;2264949;61;20381;-58
2021/12/08 09:33:22;0.00;0.00;0.62;0.00;0.00;0.62;2.90;2.20;;;17.90;25.40;;;;;;2265016;61;20441;-60
2021/12/08 09:36:19;0.00;0.00;0.62;0.00;0.00;0.62;1.90;1.23;;;17.90;25.40;;;;;;2265125;61;20449;-60
2021/12/08 09:39:10;0.00;0.00;0.62;0.00;0.00;0.62;2.90;1.70;;;17.90;25.30;;;;;;2265477;61;20361;-60
2021/12/08 09:42:06;0.00;0.00;0.62;0.00;0.00;0.62;3.00;1.87;;;18.00;25.40;;;;;;2265031;61;20405;-60
2021/12/08 09:44:55;0.00;0.00;0.62;0.00;0.00;0.62;2.47;1.40;;;18.10;25.40;;;;;;2265225;61;20384;-61
2021/12/08 09:47:40;0.00;0.00;0.62;0.00;0.00;0.62;2.20;1.50;;;18.10;25.30;;;;;;2265072;61;20348;-59
2021/12/08 09:50:24;0.00;0.00;0.62;0.00;0.00;0.62;3.50;1.60;;;18.10;25.30;;;;;;2264831;61;20459;-60
2021/12/08 09:53:09;0.00;0.00;0.62;0.00;0.00;0.62;1.77;1.27;;;18.20;25.30;;;;;;2265602;61;20732;-60
2021/12/08 09:55:55;0.00;0.00;0.62;0.00;0.00;0.62;3.40;1.27;;;18.20;25.30;;;;;;2264874;61;20356;-59
2021/12/08 09:58:41;0.00;0.00;0.62;0.00;0.00;0.62;1.90;1.30;;;18.20;25.30;;;;;;2264718;61;20361;-59
2021/12/08 10:01:27;0.00;0.00;0.62;0.00;0.00;0.62;2.17;1.33;;;18.30;25.40;;;;;;2265597;61;20385;-60
2021/12/08 10:04:14;0.00;0.00;0.62;0.00;0.00;0.62;2.23;1.53;;;18.30;25.40;;;;;;2265020;61;20392;-61
2021/12/08 10:07:02;0.00;0.00;0.62;0.00;0.00;0.62;3.07;1.77;;;18.40;25.50;;;;;;2265137;61;20396;-59
2021/12/08 10:09:50;0.00;0.00;0.62;0.00;0.00;0.62;4.13;1.50;;;18.40;25.50;;;;;;2264959;61;20368;-61
2021/12/08 10:12:36;0.00;0.00;0.62;0.00;0.00;0.62;2.40;1.40;;;18.40;25.50;;;;;;2265040;61;20601;-58
2021/12/08 10:15:25;0.00;0.00;0.62;0.00;0.00;0.62;2.43;1.30;;;18.50;25.50;;;;;;2265250;61;20430;-58
2021/12/08 10:18:10;0.00;0.00;0.62;0.00;0.00;0.62;2.97;1.80;;;18.50;25.50;;;;;;2264867;61;20380;-60
2021/12/08 10:20:55;0.00;0.00;0.62;0.00;0.00;0.62;3.70;1.30;;;18.60;25.60;;;;;;2264797;61;20381;-58
2021/12/08 10:23:42;0.00;0.00;0.62;0.00;0.00;0.62;2.70;1.30;;;18.60;25.60;;;;;;2265541;61;20481;-60
2021/12/08 10:26:33;0.00;0.00;0.62;0.00;0.00;0.62;3.73;1.73;;;18.60;25.60;;;;;;2264994;61;20381;-59
2021/12/08 10:29:25;0.00;0.00;0.62;0.00;0.00;0.62;3.80;1.70;;;18.70;25.70;;;;;;2261663;61;20360;-59
2021/12/08 10:32:15;0.00;0.00;0.62;0.00;0.00;0.62;2.10;1.37;;;18.70;25.70;;;;;;2265140;61;20357;-59
2021/12/08 10:35:05;0.00;0.00;0.62;0.00;0.00;0.62;1.80;1.20;;;18.70;25.70;;;;;;2265216;61;20341;-59
2021/12/08 10:37:59;0.00;0.00;0.62;0.00;0.00;0.62;1.77;1.03;;;18.80;25.80;;;;;;2264971;61;20365;-59
2021/12/08 10:41:00;0.00;0.00;0.62;0.00;0.00;0.62;1.60;1.10;;;18.80;25.80;;;;;;2264755;61;20428;-59
2021/12/08 10:43:57;0.00;0.00;0.62;0.00;0.00;0.62;3.20;1.63;;;18.80;25.80;;;;;;2264528;61;20404;-59
2021/12/08 10:46:43;0.00;0.00;0.62;0.00;0.00;0.62;1.90;1.03;;;18.80;25.80;;;;;;2265215;61;20361;-60
2021/12/08 10:55:22;0.00;0.00;0.62;0.00;0.00;0.62;2.27;1.40;;;18.90;25.80;;;;;;2265965;61;20361;-59
2021/12/08 10:58:20;0.00;0.00;0.62;0.00;0.00;0.62;2.93;1.57;;;19.00;26.50;;;;;;2265391;61;20613;-59
2021/12/08 11:01:11;0.00;0.00;0.62;0.00;0.00;0.62;4.53;1.20;;;19.00;25.90;;;;;;2265733;61;20377;-57
2021/12/08 11:04:00;0.00;0.00;0.62;0.00;0.00;0.62;2.53;1.47;;;19.00;25.90;;;;;;2265468;61;20385;-59
2021/12/08 11:06:47;0.00;0.00;0.62;0.00;0.00;0.62;2.90;1.57;;;19.00;25.90;;;;;;2265736;61;20357;-60
2021/12/08 11:09:40;0.00;0.00;0.62;0.00;0.00;0.62;2.50;1.70;;;19.10;26.00;;;;;;2265493;61;20364;-58
2021/12/08 11:12:39;0.00;0.00;0.62;0.00;0.00;0.62;2.47;1.60;;;19.10;26.00;;;;;;2265629;61;20356;-59
2021/12/08 11:15:26;0.00;0.00;0.62;0.00;0.00;0.62;2.00;1.40;;;19.10;26.00;;;;;;2266100;61;20437;-60
2021/12/08 11:18:17;0.00;0.00;0.62;0.00;0.00;0.62;2.60;1.50;;;19.10;26.00;;;;;;2265455;61;20373;-58
2021/12/08 11:21:05;0.00;0.00;0.62;0.00;0.00;0.62;2.23;1.30;;;19.10;26.00;;;;;;2265536;61;20602;-58
2021/12/08 11:23:55;0.00;0.00;0.62;0.00;0.00;0.62;2.40;1.40;;;19.20;26.00;;;;;;2265953;61;20393;-60
2021/12/08 11:26:43;0.00;0.00;0.62;0.00;0.00;0.62;6.30;2.83;;;19.20;26.60;;;;;;2265566;61;20358;-61
2021/12/08 11:29:31;0.00;0.00;0.62;0.00;0.00;0.62;3.70;1.97;;;19.20;26.00;;;;;;2265968;61;20396;-61
2021/12/08 11:32:21;0.00;0.00;0.62;0.00;0.00;0.62;3.30;1.50;;;19.30;26.10;;;;;;2265578;61;20376;-61
2021/12/08 11:35:19;0.00;0.00;0.62;0.00;0.00;0.62;4.80;2.17;;;19.30;26.10;;;;;;2265436;61;20428;-62
2021/12/08 11:38:03;0.00;0.00;0.62;0.00;0.00;0.62;45.03;5.13;;;19.30;26.10;;;;;;2265827;61;20353;-64
2021/12/08 11:40:49;0.00;0.00;0.62;0.00;0.00;0.62;4.80;1.90;;;19.30;26.10;;;;;;2262313;61;20411;-68
2021/12/08 11:43:34;0.00;0.00;0.62;0.00;0.00;0.62;2.17;1.30;;;19.40;26.20;;;;;;2265585;61;20388;-67
2021/12/08 11:46:19;0.00;0.00;0.62;0.00;0.00;0.62;11.53;2.47;;;19.40;26.20;;;;;;2265553;61;20647;-69
2021/12/08 11:49:06;0.00;0.00;0.62;0.00;0.00;0.62;8.23;2.03;;;19.40;26.20;;;;;;2265449;61;20404;-59
2021/12/08 11:51:56;0.00;0.00;0.62;0.00;0.00;0.62;2.83;1.40;;;19.50;26.30;;;;;;2265660;61;20436;-62
2021/12/08 11:54:49;0.00;0.00;0.62;0.00;0.00;0.62;2.37;1.20;;;19.50;26.50;;;;;;2265312;61;20357;-57
2021/12/08 11:57:37;0.00;0.00;0.62;0.00;0.00;0.62;1.53;0.90;;;19.60;26.60;;;;;;2265342;61;20741;-56